Time;durP1;ratioP1;P1;durP2;ratioP2;P2;SDS_P1;SDS_P2;PMS_P1;PMS_P2;Temp;Humidity;BMP_temperature;BMP_pressure;BME280_temperature;BME280_humidity;BME280_pressure;Samples;Min_cycle;Max_cycle;Signal;HPM_P1;HPM_P2
2022/12/29 00:01:52;;;;;;;0.75;0.50;;;17.50;50.90;;;;;;4862573;29;20212;-84
2022/12/29 00:04:18;;;;;;;0.45;0.45;;;17.50;50.70;;;;;;4793805;29;20189;-84
2022/12/29 00:06:43;;;;;;;1.33;0.70;;;17.50;50.80;;;;;;4844049;29;20573;-84
2022/12/29 00:09:19;;;;;;;0.50;0.50;;;17.50;51.30;;;;;;4844122;29;20277;-85
2022/12/29 00:11:45;;;;;;;0.82;0.50;;;17.50;50.80;;;;;;4829668;29;20194;-85
2022/12/29 00:16:55;;;;;;;0.40;0.40;;;17.40;50.80;;;;;;4845472;29;20205;-85
2022/12/29 00:35:28;;;;;;;0.50;0.35;;;17.50;51.10;;;;;;4952357;28;20188;-85
2022/12/29 00:45:51;;;;;;;0.80;0.45;;;17.40;51.10;;;;;;4956586;28;20158;-85
2022/12/29 00:51:03;;;;;;;0.40;0.40;;;17.40;51.10;;;;;;4978483;28;20167;-85
2022/12/29 00:53:31;;;;;;;0.60;0.60;;;17.40;51.10;;;;;;4976660;28;20615;-84
2022/12/29 00:55:57;;;;;;;0.85;0.40;;;17.50;51.20;;;;;;4945067;28;20183;-85
2022/12/29 00:58:22;;;;;;;0.43;0.40;;;17.40;51.20;;;;;;4960775;28;20160;-85
2022/12/29 01:00:51;;;;;;;1.02;0.60;;;17.30;51.10;;;;;;4961125;28;20188;-84
2022/12/29 01:03:18;;;;;;;1.13;0.40;;;17.40;51.00;;;;;;4948600;28;20196;-85
2022/12/29 01:05:46;;;;;;;1.33;0.60;;;17.40;51.10;;;;;;4948441;28;20176;-85
2022/12/29 01:08:12;;;;;;;0.63;0.50;;;17.40;51.20;;;;;;4964094;28;20315;-84
2022/12/29 01:10:40;;;;;;;0.68;0.55;;;17.40;51.10;;;;;;4980301;28;20618;-85
2022/12/29 01:13:06;;;;;;;0.40;0.32;;;17.40;51.00;;;;;;4948531;28;20176;-84
2022/12/29 01:15:32;;;;;;;0.70;0.60;;;17.40;51.10;;;;;;4980294;28;20175;-85
2022/12/29 01:18:01;;;;;;;0.73;0.50;;;17.40;51.10;;;;;;4964366;28;20247;-85
2022/12/29 01:20:28;;;;;;;0.30;0.30;;;17.40;51.10;;;;;;4964636;28;20207;-86
2022/12/29 01:22:56;;;;;;;0.70;0.40;;;17.40;51.10;;;;;;4964376;28;20160;-85
2022/12/29 01:25:22;;;;;;;0.40;0.40;;;17.40;51.10;;;;;;4948057;28;20202;-85
2022/12/29 01:27:48;;;;;;;0.60;0.50;;;17.30;51.10;;;;;;4947501;28;20176;-85
2022/12/29 01:30:16;;;;;;;0.55;0.50;;;17.40;51.20;;;;;;4964270;28;20215;-85
2022/12/29 01:32:43;;;;;;;0.77;0.68;;;17.40;51.30;;;;;;4963782;28;20164;-85
2022/12/29 01:35:11;;;;;;;0.65;0.40;;;17.30;51.20;;;;;;4963026;28;20184;-85
2022/12/29 01:37:37;;;;;;;0.50;0.50;;;17.30;51.20;;;;;;4949071;28;20169;-85
2022/12/29 01:40:03;;;;;;;0.40;0.40;;;17.30;51.30;;;;;;4948041;28;20761;-85
2022/12/29 01:42:40;;;;;;;0.50;0.50;;;17.30;51.40;;;;;;4947918;28;20164;-85
2022/12/29 01:45:11;;;;;;;0.63;0.50;;;17.30;51.40;;;;;;4947871;28;20176;-85
2022/12/29 01:47:54;;;;;;;0.80;0.60;;;17.30;51.40;;;;;;4947863;28;20199;-85
2022/12/29 01:50:29;;;;;;;1.17;0.60;;;17.30;51.40;;;;;;4948211;28;20258;-86
2022/12/29 01:53:02;;;;;;;0.50;0.50;;;17.30;51.10;;;;;;4963172;28;20179;-85
2022/12/29 01:55:34;;;;;;;0.40;0.40;;;17.30;51.10;;;;;;4956252;29;20668;-85
2022/12/29 01:58:04;;;;;;;0.80;0.50;;;17.30;51.00;;;;;;4902167;29;20201;-86
2022/12/29 02:00:32;;;;;;;0.75;0.50;;;17.30;51.00;;;;;;4917945;29;20247;-84
2022/12/29 02:02:58;;;;;;;1.02;0.52;;;17.30;51.30;;;;;;4917673;29;20503;-85
2022/12/29 02:05:28;;;;;;;0.60;0.50;;;17.30;51.30;;;;;;4917899;29;20206;-85
2022/12/29 02:08:03;;;;;;;0.50;0.50;;;17.30;51.40;;;;;;4902011;29;20313;-85
2022/12/29 02:10:30;;;;;;;0.30;0.30;;;17.30;51.40;;;;;;4933333;29;20595;-85
2022/12/29 02:12:56;;;;;;;0.70;0.60;;;17.30;51.30;;;;;;4917073;29;20182;-85
2022/12/29 02:15:45;;;;;;;0.50;0.50;;;17.30;51.40;;;;;;4917742;29;20301;-85
2022/12/29 02:18:21;;;;;;;0.70;0.60;;;17.30;51.40;;;;;;4930590;29;20213;-85
2022/12/29 02:21:25;;;;;;;0.50;0.40;;;17.30;51.40;;;;;;4917308;29;20321;-85
2022/12/29 02:24:11;;;;;;;0.70;0.47;;;17.30;51.40;;;;;;4901835;29;20190;-84
2022/12/29 02:27:01;;;;;;;0.60;0.50;;;17.30;51.20;;;;;;4897573;29;20268;-85
2022/12/29 02:29:41;;;;;;;0.60;0.60;;;17.30;51.30;;;;;;4883037;29;20187;-85
2022/12/29 02:32:25;;;;;;;0.52;0.50;;;17.30;51.40;;;;;;4867208;29;20797;-85
2022/12/29 02:35:05;;;;;;;0.60;0.50;;;17.30;51.20;;;;;;4898550;29;20194;-85
2022/12/29 02:37:41;;;;;;;0.50;0.50;;;17.30;51.40;;;;;;4827470;29;20662;-84
2022/12/29 02:40:25;;;;;;;0.80;0.65;;;17.30;51.40;;;;;;4827549;29;20272;-85
2022/12/29 02:43:16;;;;;;;1.45;0.50;;;17.30;51.40;;;;;;4827322;29;20684;-85
2022/12/29 02:46:04;;;;;;;0.40;0.40;;;17.20;51.40;;;;;;4830747;29;20289;-84
2022/12/29 02:48:37;;;;;;;0.30;0.30;;;17.20;51.40;;;;;;4809565;29;20176;-84
2022/12/29 02:51:07;;;;;;;0.70;0.50;;;17.30;51.30;;;;;;4839106;29;20314;-84
2022/12/29 02:56:24;;;;;;;0.90;0.60;;;17.30;51.40;;;;;;4842738;29;20182;-85
2022/12/29 02:58:49;;;;;;;0.50;0.50;;;17.20;51.20;;;;;;4827263;29;20272;-85
2022/12/29 03:01:23;;;;;;;0.40;0.40;;;17.30;51.40;;;;;;4827645;29;20300;-85
2022/12/29 03:04:12;;;;;;;0.80;0.60;;;17.30;51.40;;;;;;4828052;29;20193;-85
2022/12/29 03:06:51;;;;;;;0.77;0.30;;;17.20;51.50;;;;;;4827081;29;20326;-84
2022/12/29 03:09:36;;;;;;;0.50;0.50;;;17.20;51.50;;;;;;4858527;29;20196;-85
2022/12/29 03:17:57;;;;;;;0.50;0.40;;;17.20;51.70;;;;;;4899979;29;20157;-85
2022/12/29 03:20:26;;;;;;;0.50;0.47;;;17.20;51.50;;;;;;4904542;29;20217;-85
2022/12/29 03:23:00;;;;;;;0.63;0.45;;;17.20;51.50;;;;;;4848492;29;20202;-84
2022/12/29 03:25:29;;;;;;;0.50;0.50;;;17.20;52.20;;;;;;4863817;29;20245;-84
2022/12/29 03:27:57;;;;;;;0.80;0.68;;;17.20;51.50;;;;;;4864276;29;20184;-85
2022/12/29 03:30:23;;;;;;;0.50;0.50;;;17.20;51.70;;;;;;4863367;29;20179;-85
2022/12/29 03:32:54;;;;;;;0.50;0.40;;;17.20;51.70;;;;;;4879043;29;20182;-84
2022/12/29 03:35:21;;;;;;;0.60;0.50;;;17.20;51.60;;;;;;4936151;29;20165;-85
2022/12/29 03:37:56;;;;;;;0.75;0.43;;;17.20;51.70;;;;;;4919852;29;20190;-85
2022/12/29 03:40:28;;;;;;;0.55;0.52;;;17.20;51.60;;;;;;4932170;29;20220;-85
2022/12/29 03:42:54;;;;;;;0.60;0.50;;;17.20;51.60;;;;;;4900765;29;20178;-85
2022/12/29 03:45:22;;;;;;;0.50;0.40;;;17.20;51.60;;;;;;4884291;29;20182;-85
2022/12/29 03:47:47;;;;;;;0.68;0.50;;;17.20;51.70;;;;;;4884901;29;20182;-84
2022/12/29 03:50:16;;;;;;;0.68;0.50;;;17.20;51.70;;;;;;4900773;29;20250;-85
2022/12/29 03:52:42;;;;;;;0.40;0.40;;;17.10;51.80;;;;;;4885929;29;20258;-85
2022/12/29 03:55:11;;;;;;;0.57;0.50;;;17.10;51.70;;;;;;4906685;29;20622;-85
2022/12/29 03:57:40;;;;;;;0.63;0.40;;;17.10;51.60;;;;;;4907484;29;20168;-85
2022/12/29 04:00:12;;;;;;;0.68;0.50;;;17.10;51.70;;;;;;4906650;29;20241;-85
2022/12/29 04:02:40;;;;;;;0.70;0.40;;;17.10;51.80;;;;;;4923156;29;20162;-85
2022/12/29 04:05:10;;;;;;;0.73;0.52;;;17.10;51.90;;;;;;4903346;29;20193;-85
2022/12/29 04:07:36;;;;;;;0.50;0.50;;;17.10;51.80;;;;;;4903999;29;20245;-84
2022/12/29 04:10:07;;;;;;;0.75;0.47;;;17.10;51.80;;;;;;4919335;29;20210;-87
2022/12/29 04:12:35;;;;;;;0.77;0.50;;;17.10;51.80;;;;;;4902891;29;20178;-85
2022/12/29 04:15:06;;;;;;;0.77;0.40;;;17.10;51.70;;;;;;4934680;29;20289;-84
2022/12/29 04:17:35;;;;;;;0.43;0.40;;;17.10;51.80;;;;;;4935290;29;20277;-85
2022/12/29 04:22:59;;;;;;;0.40;0.40;;;17.10;51.80;;;;;;4948591;29;20186;-85
2022/12/29 04:25:25;;;;;;;0.57;0.40;;;17.10;51.80;;;;;;4878267;29;20179;-85
2022/12/29 04:27:51;;;;;;;0.55;0.40;;;17.10;51.70;;;;;;4893881;29;20191;-85
2022/12/29 04:30:19;;;;;;;0.40;0.40;;;17.20;51.80;;;;;;4894069;29;20243;-85
2022/12/29 04:32:45;;;;;;;0.90;0.55;;;17.20;51.90;;;;;;4893118;29;20207;-85
2022/12/29 04:35:18;;;;;;;0.38;0.32;;;17.10;51.80;;;;;;4878719;29;20184;-85
2022/12/29 04:37:48;;;;;;;0.90;0.50;;;17.10;51.70;;;;;;4910057;29;20656;-85
2022/12/29 04:40:20;;;;;;;0.38;0.38;;;17.10;52.40;;;;;;4910401;29;20258;-85
2022/12/29 04:42:47;;;;;;;0.93;0.52;;;17.10;51.80;;;;;;4903094;29;20208;-85
2022/12/29 04:45:18;;;;;;;1.65;0.50;;;17.10;52.50;;;;;;4901445;29;20179;-85
2022/12/29 04:47:46;;;;;;;0.57;0.45;;;17.10;51.90;;;;;;4857031;29;20594;-85
2022/12/29 04:50:18;;;;;;;0.93;0.52;;;17.10;51.90;;;;;;4867691;29;20194;-85
2022/12/29 04:53:20;;;;;;;0.40;0.40;;;17.00;51.80;;;;;;4875835;29;20193;-85
2022/12/29 04:55:55;;;;;;;0.63;0.50;;;17.10;52.00;;;;;;4845015;29;20267;-85
2022/12/29 04:58:21;;;;;;;1.17;0.50;;;17.00;51.90;;;;;;4844768;29;20184;-85
2022/12/29 05:00:50;;;;;;;0.30;0.30;;;17.00;51.90;;;;;;4843641;29;20340;-85
2022/12/29 05:03:16;;;;;;;0.50;0.50;;;17.00;52.00;;;;;;4843920;29;20245;-85
2022/12/29 05:05:49;;;;;;;0.63;0.57;;;17.00;51.90;;;;;;4859048;29;20355;-85
2022/12/29 05:08:14;;;;;;;0.50;0.50;;;17.00;52.00;;;;;;4847308;29;20232;-85
2022/12/29 05:10:45;;;;;;;2.17;0.50;;;17.00;51.90;;;;;;4858942;29;20263;-85
2022/12/29 05:13:24;;;;;;;;;;;;;;;;;;;;;
2022/12/29 05:15:53;;;;;;;0.38;0.30;;;17.10;52.10;;;;;;4800467;29;20225;-84
2022/12/29 05:18:26;;;;;;;0.93;0.52;;;17.00;51.90;;;;;;4801250;29;20244;-86
2022/12/29 05:21:01;;;;;;;0.43;0.43;;;17.00;52.00;;;;;;4786573;29;20211;-85
2022/12/29 05:23:29;;;;;;;0.57;0.43;;;17.00;52.00;;;;;;4790105;29;20277;-85
2022/12/29 05:25:55;;;;;;;0.60;0.50;;;17.00;52.00;;;;;;4804065;29;20214;-84
2022/12/29 05:28:20;;;;;;;0.70;0.60;;;17.00;52.10;;;;;;4804331;29;20210;-86
2022/12/29 05:30:59;;;;;;;0.68;0.40;;;17.00;52.00;;;;;;4822330;29;20645;-85
2022/12/29 05:33:27;;;;;;;0.60;0.52;;;17.00;51.90;;;;;;4867739;29;20186;-85
2022/12/29 05:35:56;;;;;;;0.55;0.50;;;17.00;51.90;;;;;;4898843;29;20183;-85
2022/12/29 05:38:24;;;;;;;0.70;0.63;;;17.00;51.90;;;;;;4883366;29;20684;-85
2022/12/29 05:40:53;;;;;;;0.50;0.50;;;17.00;52.00;;;;;;4899459;29;20214;-85
2022/12/29 05:43:18;;;;;;;1.40;0.60;;;17.00;51.90;;;;;;4899457;29;20179;-85
2022/12/29 05:45:49;;;;;;;0.80;0.40;;;17.00;51.90;;;;;;4938774;28;20203;-85
2022/12/29 05:48:16;;;;;;;0.50;0.47;;;17.10;52.10;;;;;;4950204;28;20207;-85
2022/12/29 05:50:42;;;;;;;0.68;0.50;;;17.10;51.80;;;;;;4964280;28;20167;-85
2022/12/29 05:53:07;;;;;;;1.08;0.60;;;17.10;52.10;;;;;;4948340;28;20179;-85
2022/12/29 05:55:34;;;;;;;1.48;0.55;;;17.00;52.00;;;;;;4947792;28;20523;-85
2022/12/29 05:58:00;;;;;;;0.80;0.50;;;17.10;52.00;;;;;;4951754;28;20249;-85
2022/12/29 06:00:28;;;;;;;0.50;0.47;;;17.00;51.90;;;;;;4973696;28;20726;-84
2022/12/29 06:02:55;;;;;;;0.93;0.50;;;17.00;52.00;;;;;;4958358;28;20191;-85
2022/12/29 06:05:20;;;;;;;1.15;0.40;;;17.00;52.00;;;;;;5006156;28;20160;-85
2022/12/29 06:07:46;;;;;;;0.68;0.43;;;17.00;52.00;;;;;;4988834;28;20241;-85
2022/12/29 06:10:49;;;;;;;0.63;0.40;;;17.00;52.00;;;;;;4952213;28;20183;-85
2022/12/29 06:13:24;;;;;;;0.63;0.50;;;17.00;52.00;;;;;;4975424;28;20199;-86
2022/12/29 06:15:52;;;;;;;1.13;0.40;;;17.00;52.10;;;;;;4937421;29;20649;-86
2022/12/29 06:18:29;;;;;;;1.17;0.47;;;17.00;52.10;;;;;;4906001;29;20194;-84
2022/12/29 06:21:03;;;;;;;0.50;0.40;;;17.00;52.10;;;;;;4907192;29;20244;-85
2022/12/29 06:23:29;;;;;;;0.95;0.50;;;17.00;52.10;;;;;;4907962;29;20665;-85
2022/12/29 06:25:54;;;;;;;0.43;0.40;;;17.00;52.20;;;;;;4909260;29;20182;-85
2022/12/29 06:28:20;;;;;;;0.50;0.50;;;17.00;52.10;;;;;;4910284;29;20613;-84
2022/12/29 06:30:48;;;;;;;0.43;0.40;;;17.00;52.20;;;;;;4910763;29;20189;-85
2022/12/29 06:33:15;;;;;;;0.75;0.60;;;17.00;52.20;;;;;;4894208;29;20186;-85
2022/12/29 06:35:45;;;;;;;0.52;0.40;;;17.10;52.20;;;;;;4910817;29;20209;-85
2022/12/29 06:38:14;;;;;;;1.23;0.40;;;17.00;52.20;;;;;;4910974;29;20194;-84
2022/12/29 06:40:44;;;;;;;0.57;0.50;;;17.10;52.20;;;;;;4910843;29;20273;-85
2022/12/29 06:43:16;;;;;;;0.60;0.45;;;17.10;52.20;;;;;;4870567;29;20199;-84
2022/12/29 06:45:41;;;;;;;1.67;0.40;;;17.10;52.20;;;;;;4857448;29;20215;-85
2022/12/29 06:48:08;;;;;;;0.45;0.38;;;17.20;52.10;;;;;;4892439;29;20219;-85
2022/12/29 06:50:36;;;;;;;0.63;0.50;;;17.20;52.00;;;;;;4890463;29;20206;-85
2022/12/29 06:53:05;;;;;;;0.30;0.30;;;17.30;51.80;;;;;;4890770;29;20187;-85
2022/12/29 06:55:31;;;;;;;0.30;0.30;;;17.30;51.40;;;;;;4849713;29;20188;-85
2022/12/29 06:58:02;;;;;;;0.95;0.47;;;17.30;51.30;;;;;;4863431;29;20193;-86
2022/12/29 07:00:35;;;;;;;0.70;0.50;;;17.40;51.40;;;;;;4832178;29;20254;-85
2022/12/29 07:03:02;;;;;;;0.40;0.40;;;17.40;51.40;;;;;;4847941;29;20189;-85
2022/12/29 07:05:34;;;;;;;0.40;0.40;;;17.40;51.20;;;;;;4847884;29;20189;-85
2022/12/29 07:08:05;;;;;;;0.88;0.50;;;17.50;51.20;;;;;;4863041;29;20293;-86
2022/12/29 07:10:34;;;;;;;0.32;0.32;;;17.50;51.10;;;;;;4847789;29;20279;-84
2022/12/29 07:13:01;;;;;;;0.40;0.38;;;17.50;51.00;;;;;;4828757;29;20276;-85
2022/12/29 07:15:32;;;;;;;0.50;0.45;;;17.50;50.90;;;;;;4829405;29;20185;-85
2022/12/29 07:18:36;;;;;;;0.50;0.40;;;17.60;50.80;;;;;;4829073;29;20185;-85
2022/12/29 07:21:01;;;;;;;0.60;0.30;;;17.60;50.80;;;;;;4864735;29;20242;-86
2022/12/29 07:23:35;;;;;;;0.35;0.30;;;17.60;50.80;;;;;;4850548;29;20651;-86
2022/12/29 07:26:05;;;;;;;0.45;0.40;;;17.60;50.80;;;;;;4851492;29;20186;-85
2022/12/29 07:28:47;;;;;;;0.57;0.40;;;17.70;50.70;;;;;;4886548;29;20545;-85
2022/12/29 07:31:20;;;;;;;0.60;0.50;;;17.60;50.60;;;;;;4883288;29;20266;-86
2022/12/29 07:33:49;;;;;;;0.60;0.50;;;17.60;50.50;;;;;;4883827;29;20184;-84
2022/12/29 07:36:19;;;;;;;0.40;0.32;;;17.70;50.40;;;;;;4882800;29;20188;-85
2022/12/29 07:38:45;;;;;;;0.75;0.60;;;17.70;50.40;;;;;;4876583;29;20199;-85
2022/12/29 07:41:13;;;;;;;0.40;0.40;;;17.70;50.50;;;;;;4862497;29;20221;-85
2022/12/29 07:43:39;;;;;;;0.40;0.40;;;17.80;50.30;;;;;;4817352;29;20214;-85
2022/12/29 07:46:09;;;;;;;0.40;0.40;;;17.70;50.50;;;;;;4837640;29;20209;-85
2022/12/29 07:48:38;;;;;;;0.50;0.50;;;17.60;50.50;;;;;;4858157;29;20203;-85
2022/12/29 07:51:07;;;;;;;0.40;0.40;;;17.70;50.60;;;;;;4872707;29;20663;-85
2022/12/29 07:53:32;;;;;;;0.30;0.30;;;17.70;50.70;;;;;;4880705;29;20221;-84
2022/12/29 07:56:01;;;;;;;0.65;0.45;;;17.60;50.90;;;;;;4881225;29;20188;-85
2022/12/29 07:58:29;;;;;;;0.70;0.40;;;17.70;50.80;;;;;;4880409;29;20226;-85
2022/12/29 08:00:58;;;;;;;0.45;0.40;;;17.60;51.00;;;;;;4879795;29;20211;-85
2022/12/29 08:03:33;;;;;;;0.70;0.60;;;17.60;50.50;;;;;;4880082;29;20216;-85
2022/12/29 08:06:12;;;;;;;0.30;0.30;;;17.70;50.50;;;;;;4879625;29;20231;-85
2022/12/29 08:08:41;;;;;;;0.63;0.50;;;17.70;50.70;;;;;;4897816;29;20191;-85
2022/12/29 08:11:12;;;;;;;0.65;0.52;;;17.70;50.50;;;;;;4883872;29;20213;-85
2022/12/29 08:13:40;;;;;;;0.93;0.50;;;17.70;51.20;;;;;;4880691;29;20206;-85
2022/12/29 08:16:10;;;;;;;0.50;0.50;;;17.70;50.70;;;;;;4881645;29;20188;-85
2022/12/29 08:18:37;;;;;;;0.50;0.50;;;17.70;50.50;;;;;;4897913;29;20175;-85
2022/12/29 08:21:06;;;;;;;0.85;0.40;;;17.80;50.50;;;;;;4887772;29;20310;-85
2022/12/29 08:23:34;;;;;;;0.60;0.60;;;17.80;50.40;;;;;;4954745;29;20212;-85
2022/12/29 08:26:03;;;;;;;0.98;0.60;;;17.70;50.40;;;;;;4923592;29;20195;-85
2022/12/29 08:28:35;;;;;;;0.60;0.60;;;17.80;51.20;;;;;;4922270;29;20166;-84
2022/12/29 08:31:03;;;;;;;0.50;0.50;;;17.80;50.40;;;;;;4922734;29;20644;-85
2022/12/29 08:33:31;;;;;;;0.70;0.60;;;17.80;50.50;;;;;;4938479;29;20189;-84
2022/12/29 08:36:02;;;;;;;0.38;0.38;;;17.80;50.50;;;;;;4942697;29;20177;-84
2022/12/29 08:38:28;;;;;;;0.63;0.40;;;17.80;50.50;;;;;;4947289;28;20188;-86
2022/12/29 08:40:55;;;;;;;0.90;0.50;;;17.80;50.30;;;;;;4932171;28;20650;-84
2022/12/29 08:43:21;;;;;;;0.65;0.40;;;17.80;50.30;;;;;;4931503;28;20224;-84
2022/12/29 08:45:57;;;;;;;0.40;0.40;;;17.80;51.40;;;;;;4946690;28;20157;-84
2022/12/29 08:48:23;;;;;;;0.60;0.50;;;17.80;50.70;;;;;;4900751;29;20611;-84
2022/12/29 08:51:00;;;;;;;1.77;0.60;;;17.80;50.60;;;;;;4901784;29;20273;-85
2022/12/29 08:53:33;;;;;;;0.40;0.40;;;17.80;50.80;;;;;;4917827;29;20182;-86
2022/12/29 08:56:07;;;;;;;0.52;0.50;;;17.80;50.80;;;;;;4878519;29;20198;-84
2022/12/29 08:58:33;;;;;;;0.55;0.50;;;17.70;50.80;;;;;;4851692;29;20188;-84
2022/12/29 09:01:04;;;;;;;0.65;0.50;;;17.80;50.90;;;;;;4848401;29;20218;-85
2022/12/29 09:03:30;;;;;;;0.65;0.47;;;17.80;50.80;;;;;;4848968;29;20298;-84
2022/12/29 09:05:55;;;;;;;1.95;0.55;;;17.80;50.90;;;;;;4862948;29;20767;-84
2022/12/29 09:08:21;;;;;;;0.90;0.45;;;17.90;51.00;;;;;;4900294;29;20317;-85
2022/12/29 09:10:50;;;;;;;1.33;0.40;;;17.90;51.10;;;;;;4901060;29;20190;-85
2022/12/29 09:13:16;;;;;;;0.90;0.50;;;17.90;50.80;;;;;;4915872;29;20239;-85
2022/12/29 09:15:42;;;;;;;0.93;0.45;;;17.90;51.10;;;;;;4916450;29;20191;-84
2022/12/29 09:18:10;;;;;;;2.10;0.60;;;18.00;51.30;;;;;;4920330;28;20256;-84
2022/12/29 09:20:37;;;;;;;0.70;0.50;;;18.00;51.30;;;;;;4942368;28;20208;-86
2022/12/29 09:23:03;;;;;;;0.70;0.50;;;18.00;51.40;;;;;;4930048;28;20688;-85
2022/12/29 09:25:29;;;;;;;1.02;0.40;;;18.00;51.40;;;;;;4945052;28;20600;-84
2022/12/29 09:27:55;;;;;;;1.08;0.63;;;18.00;51.40;;;;;;4977295;28;20184;-85
2022/12/29 09:30:23;;;;;;;0.80;0.40;;;18.00;51.50;;;;;;4996641;28;20695;-85
2022/12/29 09:32:49;;;;;;;0.93;0.60;;;18.00;51.40;;;;;;4965121;28;20164;-85
2022/12/29 09:35:16;;;;;;;0.50;0.47;;;18.00;51.50;;;;;;4964230;28;20179;-85
2022/12/29 09:37:42;;;;;;;0.52;0.40;;;18.00;51.40;;;;;;4967276;28;20612;-85
2022/12/29 09:40:26;;;;;;;1.17;0.55;;;18.00;51.30;;;;;;4968623;28;20195;-85
2022/12/29 09:43:24;;;;;;;0.82;0.52;;;18.10;51.30;;;;;;4987708;28;20498;-85
2022/12/29 09:46:14;;;;;;;0.50;0.50;;;18.10;51.30;;;;;;4988363;28;20170;-83
2022/12/29 09:48:44;;;;;;;2.47;0.63;;;18.10;51.20;;;;;;5018705;28;20159;-84
2022/12/29 09:51:13;;;;;;;1.58;0.55;;;18.10;51.30;;;;;;4967996;28;20171;-85
2022/12/29 09:53:41;;;;;;;2.53;0.60;;;18.10;51.40;;;;;;5002557;28;20186;-85
2022/12/29 09:56:13;;;;;;;3.30;0.57;;;18.20;51.20;;;;;;4967006;28;20168;-84
2022/12/29 09:58:45;;;;;;;1.58;0.50;;;18.20;51.50;;;;;;4967854;28;20202;-86
2022/12/29 10:01:37;;;;;;;2.10;0.50;;;18.20;51.20;;;;;;4984381;28;20176;-84
2022/12/29 10:04:04;;;;;;;2.42;0.40;;;18.20;51.40;;;;;;4993223;28;20516;-85
2022/12/29 10:06:44;;;;;;;1.75;0.55;;;18.10;51.50;;;;;;4986313;28;20215;-85
2022/12/29 10:09:33;;;;;;;1.98;0.50;;;18.20;51.60;;;;;;4987855;28;20267;-86
2022/12/29 10:12:25;;;;;;;2.72;0.57;;;18.20;51.70;;;;;;4989558;28;20178;-85
2022/12/29 10:15:07;;;;;;;1.60;0.70;;;18.20;51.50;;;;;;5004417;28;20186;-86
2022/12/29 10:17:48;;;;;;;1.88;0.50;;;18.20;51.70;;;;;;5005016;28;20167;-85
2022/12/29 10:20:28;;;;;;;1.80;0.43;;;18.20;51.70;;;;;;5003937;28;20274;-86
2022/12/29 10:23:12;;;;;;;4.22;0.55;;;18.20;51.70;;;;;;4987974;28;20205;-85
2022/12/29 10:25:41;;;;;;;2.10;0.60;;;18.20;51.70;;;;;;4974297;28;20179;-85
2022/12/29 10:28:20;;;;;;;3.60;0.65;;;18.30;51.80;;;;;;4991290;28;20155;-84
2022/12/29 10:30:49;;;;;;;3.10;0.63;;;18.20;51.80;;;;;;4989089;28;20166;-83
2022/12/29 10:33:23;;;;;;;1.90;0.60;;;18.20;51.80;;;;;;4974405;28;20206;-82
2022/12/29 10:35:53;;;;;;;2.38;0.57;;;18.20;51.90;;;;;;4970269;28;20189;-83
2022/12/29 10:38:29;;;;;;;4.30;0.60;;;18.30;51.90;;;;;;4968852;28;20650;-85
2022/12/29 10:41:02;;;;;;;1.77;0.60;;;18.30;51.80;;;;;;4926585;29;20680;-84
2022/12/29 10:43:31;;;;;;;4.45;0.70;;;18.30;51.90;;;;;;4908007;29;20190;-86
2022/12/29 10:46:04;;;;;;;4.43;0.80;;;18.30;51.70;;;;;;4925861;29;20182;-85
2022/12/29 10:48:36;;;;;;;1.30;0.30;;;18.30;51.70;;;;;;4908181;29;20179;-84
2022/12/29 10:51:08;;;;;;;3.58;0.82;;;18.30;52.00;;;;;;4925625;29;20183;-84
2022/12/29 10:53:45;;;;;;;4.70;0.70;;;18.30;52.10;;;;;;4915643;29;20394;-83
2022/12/29 10:56:55;;;;;;;2.05;0.50;;;18.30;52.20;;;;;;4889600;29;20184;-84
2022/12/29 10:59:22;;;;;;;4.75;0.57;;;18.30;52.20;;;;;;4899810;29;20180;-84
2022/12/29 11:02:17;;;;;;;1.65;0.30;;;18.40;52.20;;;;;;4903459;29;20191;-82
2022/12/29 11:04:58;;;;;;;5.55;0.60;;;18.40;52.20;;;;;;4888851;29;20267;-83
2022/12/29 11:07:25;;;;;;;5.25;0.80;;;18.40;52.30;;;;;;4904327;29;20218;-83
2022/12/29 11:09:51;;;;;;;6.35;0.88;;;18.40;52.20;;;;;;4905597;29;20182;-83
2022/12/29 11:12:24;;;;;;;7.20;0.70;;;18.40;52.40;;;;;;4949063;28;20661;-83
2022/12/29 11:15:13;;;;;;;1.90;0.52;;;18.40;52.50;;;;;;4968835;28;20185;-84
2022/12/29 11:17:46;;;;;;;5.13;0.68;;;18.40;52.10;;;;;;4969814;28;20219;-84
2022/12/29 11:20:29;;;;;;;2.38;0.50;;;18.40;52.10;;;;;;4968210;28;20209;-81
2022/12/29 11:23:01;;;;;;;0.45;0.40;;;18.50;52.20;;;;;;4949907;28;20168;-81
2022/12/29 11:25:28;;;;;;;2.90;0.68;;;18.50;52.00;;;;;;4956196;29;20181;-81
2022/12/29 11:28:00;;;;;;;6.43;0.77;;;18.50;52.10;;;;;;4961240;29;20226;-82
2022/12/29 11:30:35;;;;;;;3.65;0.50;;;18.50;52.20;;;;;;4931619;29;20711;-82
2022/12/29 11:34:33;;;;;;;;;;;;;;;;;;;;;
2022/12/29 11:36:32;;;;;;;3.10;0.60;;;18.50;52.30;;;;;;4921928;29;20257;-83
2022/12/29 11:39:06;;;;;;;1.90;0.40;;;18.50;52.30;;;;;;4906005;29;20594;-84
2022/12/29 11:41:40;;;;;;;4.38;0.68;;;18.50;52.20;;;;;;4924680;29;20224;-85
2022/12/29 11:44:11;;;;;;;1.08;0.40;;;18.50;52.30;;;;;;4911993;29;20192;-83
2022/12/29 11:46:38;;;;;;;0.85;0.50;;;18.40;52.10;;;;;;4873894;29;20187;-82
2022/12/29 11:49:10;;;;;;;2.22;0.43;;;18.50;52.40;;;;;;4891935;29;20191;-85
2022/12/29 11:51:43;;;;;;;2.25;0.30;;;18.50;52.20;;;;;;4891744;29;20211;-83
2022/12/29 11:54:13;;;;;;;3.17;0.50;;;18.50;52.10;;;;;;4870045;29;20675;-83
2022/12/29 11:56:45;;;;;;;1.95;0.75;;;18.50;52.30;;;;;;4855466;29;20200;-82
2022/12/29 11:59:46;;;;;;;2.40;0.70;;;18.50;52.30;;;;;;4874111;29;20188;-84
2022/12/29 12:02:22;;;;;;;3.60;0.70;;;18.50;52.30;;;;;;4874077;29;20167;-85
2022/12/29 12:04:49;;;;;;;1.50;0.50;;;18.40;52.10;;;;;;4871990;29;20176;-85
2022/12/29 12:07:30;;;;;;;;;;;;;;;;;;;;;
2022/12/29 12:10:38;;;;;;;2.63;0.50;;;18.50;52.30;;;;;;4838167;29;20255;-84
2022/12/29 12:13:29;;;;;;;1.05;0.50;;;18.50;52.30;;;;;;4813529;29;20190;-86
2022/12/29 12:16:21;;;;;;;1.00;0.47;;;18.50;52.40;;;;;;4801264;29;20204;-83
2022/12/29 12:18:49;;;;;;;1.75;0.47;;;18.50;52.30;;;;;;4813547;29;20761;-83
2022/12/29 12:21:32;;;;;;;2.85;0.65;;;18.40;52.10;;;;;;4814574;29;20226;-83
2022/12/29 12:24:35;;;;;;;0.50;0.35;;;18.40;52.10;;;;;;4821471;29;20269;-83
2022/12/29 12:27:13;;;;;;;1.65;0.50;;;18.50;52.30;;;;;;4859136;29;20164;-84
2022/12/29 12:29:46;;;;;;;1.92;0.55;;;18.40;52.40;;;;;;4863580;29;20192;-84
2022/12/29 12:32:20;;;;;;;2.28;0.30;;;18.40;52.50;;;;;;4852691;29;20177;-84
2022/12/29 12:34:46;;;;;;;0.80;0.40;;;18.40;52.80;;;;;;4834722;29;20667;-84
2022/12/29 12:37:45;;;;;;;0.93;0.40;;;18.40;52.60;;;;;;4848757;29;20192;-85
2022/12/29 12:40:35;;;;;;;1.58;0.30;;;18.40;52.80;;;;;;4869606;29;20285;-83
2022/12/29 12:43:28;;;;;;;0.50;0.47;;;18.40;53.00;;;;;;4848089;29;20213;-86
2022/12/29 12:46:17;;;;;;;5.38;0.90;;;18.40;53.10;;;;;;4847186;29;20698;-83
2022/12/29 12:49:13;;;;;;;2.72;0.68;;;18.30;53.00;;;;;;4867587;29;20189;-83
2022/12/29 12:52:06;;;;;;;3.38;0.60;;;18.30;53.00;;;;;;4812187;29;20202;-85
2022/12/29 12:55:08;;;;;;;0.30;0.30;;;18.40;53.60;;;;;;4799347;29;20196;-84
2022/12/29 12:58:05;;;;;;;0.60;0.40;;;18.40;52.90;;;;;;4858699;29;20329;-86
2022/12/29 13:00:49;;;;;;;2.08;0.50;;;18.40;52.80;;;;;;4838598;29;20212;-86
2022/12/29 13:03:38;;;;;;;1.90;0.60;;;18.40;52.60;;;;;;4833641;29;20192;-86
2022/12/29 13:06:25;;;;;;;3.15;0.60;;;18.40;52.80;;;;;;4817790;29;20223;-85
2022/12/29 13:09:25;;;;;;;0.50;0.40;;;18.40;53.00;;;;;;4835029;29;20264;-86
2022/12/29 13:12:17;;;;;;;1.75;0.35;;;18.40;53.10;;;;;;4833715;29;20306;-84
2022/12/29 13:15:19;;;;;;;1.13;0.40;;;18.40;53.20;;;;;;4835624;29;20202;-85
2022/12/29 13:17:55;;;;;;;2.25;0.50;;;18.40;53.10;;;;;;4834920;29;20189;-84
2022/12/29 13:21:39;;;;;;;0.73;0.57;;;18.40;53.00;;;;;;4815927;29;20226;-85
2022/12/29 13:24:27;;;;;;;4.15;0.70;;;18.40;53.00;;;;;;4764045;30;20201;-86
2022/12/29 13:27:00;;;;;;;1.50;0.50;;;18.50;53.00;;;;;;4819678;29;20186;-85
2022/12/29 13:29:42;;;;;;;5.30;0.80;;;18.40;53.10;;;;;;4799147;29;20191;-86
2022/12/29 13:32:36;;;;;;;3.80;0.70;;;18.40;53.10;;;;;;4781984;30;20202;-84
2022/12/29 13:35:11;;;;;;;2.55;0.65;;;18.40;53.20;;;;;;4789538;30;20218;-85
2022/12/29 13:37:46;;;;;;;2.78;0.82;;;18.50;53.20;;;;;;4805169;29;20587;-84
2022/12/29 13:40:16;;;;;;;1.75;0.50;;;18.50;53.40;;;;;;4780890;30;20314;-84
2022/12/29 13:42:47;;;;;;;6.18;0.70;;;18.50;53.30;;;;;;4828583;29;20177;-84
2022/12/29 13:45:17;;;;;;;1.88;0.70;;;18.50;53.40;;;;;;4831021;29;20194;-86
2022/12/29 13:47:57;;;;;;;2.20;0.57;;;18.60;53.50;;;;;;4818970;29;20200;-84
2022/12/29 13:50:25;;;;;;;10.02;1.10;;;18.50;53.50;;;;;;4865205;29;20315;-84
2022/12/29 13:53:22;;;;;;;3.08;0.60;;;18.50;53.40;;;;;;4884307;29;20586;-85
2022/12/29 13:56:20;;;;;;;1.08;0.47;;;18.50;53.40;;;;;;4886884;29;20203;-85
2022/12/29 13:58:58;;;;;;;4.40;0.73;;;18.50;53.30;;;;;;4914523;29;20202;-84
2022/12/29 14:01:39;;;;;;;7.93;0.60;;;18.40;53.50;;;;;;4869062;29;20285;-84
2022/12/29 14:04:12;;;;;;;3.15;0.73;;;18.40;53.50;;;;;;4944927;29;20200;-85
2022/12/29 14:06:40;;;;;;;5.13;0.82;;;18.40;53.50;;;;;;4917756;28;20708;-84